Aviation Digital Data Service (ADDS)

Output produced by METARs form (0958 UTC 19 November 2018)
found at http://www.aviationweather.gov/metar/data/
 
RJGG 190930Z 33019KT 9999 FEW020 BKN150 16/07 Q1014 NOSIG
RJGG 190900Z 32023KT 9999 FEW020 BKN140 16/07 Q1014 NOSIG
TAF RJGG 190506Z 1906/2012 33015KT 9999 FEW020 
     BECMG 1907/1909 32025KT 
     TEMPO 1909/1912 32030G40KT